createdAt,value
2018-06-02T00:00:37.901Z,14.87
2018-06-02T00:01:37.898Z,14.72
2018-06-02T00:02:37.889Z,14.65
2018-06-02T00:03:37.889Z,14.62
2018-06-02T00:04:37.884Z,14.72
2018-06-02T00:05:37.882Z,14.62
2018-06-02T00:06:37.874Z,14.57
2018-06-02T00:07:37.873Z,14.62
2018-06-02T00:08:37.872Z,14.54
2018-06-02T00:09:37.870Z,14.47
2018-06-02T00:10:37.865Z,14.43
2018-06-02T00:11:37.858Z,14.47
2018-06-02T00:12:37.855Z,14.42
2018-06-02T00:13:37.857Z,14.44
2018-06-02T00:14:37.854Z,14.50
2018-06-02T00:15:37.850Z,14.52
2018-06-02T00:16:37.840Z,14.56
2018-06-02T00:17:37.830Z,14.62
2018-06-02T00:18:37.833Z,14.57
2018-06-02T00:19:37.830Z,14.64
2018-06-02T00:20:37.824Z,14.54
2018-06-02T00:21:37.828Z,14.60
2018-06-02T00:22:37.822Z,14.54
2018-06-02T00:23:37.817Z,14.57
2018-06-02T00:24:37.813Z,14.61
2018-06-02T00:25:37.806Z,14.50
2018-06-02T00:26:37.808Z,14.54
2018-06-02T00:27:37.806Z,14.49
2018-06-02T00:28:37.802Z,14.56
2018-06-02T00:29:37.821Z,14.52
2018-06-02T00:30:37.809Z,14.56
2018-06-02T00:31:37.789Z,14.54
2018-06-02T00:32:37.806Z,14.56
2018-06-02T00:33:37.780Z,14.62
2018-06-02T00:34:37.781Z,14.56
2018-06-02T00:35:37.774Z,14.39
2018-06-02T00:36:37.767Z,14.50
2018-06-02T00:37:37.766Z,14.47
2018-06-02T00:38:37.764Z,14.47
2018-06-02T00:39:37.756Z,14.37
2018-06-02T00:40:37.752Z,14.50
2018-06-02T00:41:37.739Z,14.42
2018-06-02T00:42:37.743Z,14.46
2018-06-02T00:43:37.745Z,14.44
2018-06-02T00:44:37.737Z,14.44
2018-06-02T00:45:37.733Z,14.37
2018-06-02T00:46:37.729Z,14.38
2018-06-02T00:47:37.731Z,14.38
2018-06-02T00:48:37.726Z,14.38
2018-06-02T00:49:37.744Z,14.44
2018-06-02T00:50:37.716Z,14.49
2018-06-02T00:51:37.711Z,14.44
2018-06-02T00:52:37.708Z,14.54
2018-06-02T00:53:37.710Z,14.62
2018-06-02T00:54:37.704Z,14.57
2018-06-02T00:55:37.698Z,14.54
2018-06-02T00:56:37.694Z,14.67
2018-06-02T00:57:37.696Z,14.53
2018-06-02T00:58:37.687Z,14.65
2018-06-02T00:59:37.689Z,14.68
2018-06-02T01:00:37.680Z,14.80
2018-06-02T01:01:37.673Z,14.69
2018-06-02T01:02:37.671Z,14.71
2018-06-02T01:03:37.671Z,14.74
2018-06-02T01:04:37.670Z,14.72
2018-06-02T01:05:37.660Z,14.64
2018-06-02T01:06:37.655Z,14.56
2018-06-02T01:07:37.654Z,14.50
2018-06-02T01:08:37.651Z,14.46
2018-06-02T01:09:37.648Z,14.49
2018-06-02T01:10:37.645Z,14.34
2018-06-02T01:11:37.641Z,14.54
2018-06-02T01:12:37.635Z,14.53
2018-06-02T01:13:37.632Z,14.67
2018-06-02T01:14:37.634Z,14.71
2018-06-02T01:15:37.624Z,14.72
2018-06-02T01:16:37.624Z,14.72
2018-06-02T01:17:37.618Z,14.64
2018-06-02T01:18:37.612Z,14.68
2018-06-02T01:19:37.612Z,14.53
2018-06-02T01:20:37.602Z,14.57
2018-06-02T01:21:37.604Z,14.54
2018-06-02T01:22:37.599Z,14.44
2018-06-02T01:23:37.600Z,14.37
2018-06-02T01:24:37.588Z,14.37
2018-06-02T01:25:37.587Z,14.44
2018-06-02T01:26:37.582Z,14.52
2018-06-02T01:27:37.582Z,14.39
2018-06-02T01:28:37.572Z,14.46
2018-06-02T01:29:37.577Z,14.47
2018-06-02T01:30:37.568Z,14.38
2018-06-02T02:03:37.254Z,14.49
2018-06-02T02:04:37.226Z,14.46
2018-06-02T02:06:30.242Z,14.47
2018-06-02T02:07:30.220Z,14.50
2018-06-02T02:09:23.112Z,14.32
2018-06-02T02:10:23.100Z,14.21
2018-06-02T02:12:16.012Z,14.31
2018-06-02T02:13:15.994Z,14.27
2018-06-02T02:15:08.879Z,14.20
2018-06-02T02:16:08.855Z,14.16
2018-06-02T02:18:01.783Z,14.19
2018-06-02T02:19:01.775Z,14.13
2018-06-02T02:20:54.799Z,14.13
2018-06-02T02:21:54.765Z,14.09
2018-06-02T02:23:47.753Z,14.01
2018-06-02T02:24:47.737Z,13.92
2018-06-02T02:26:40.646Z,13.99
2018-06-02T02:27:40.623Z,13.92
2018-06-02T02:29:33.539Z,13.89
2018-06-02T02:30:33.526Z,13.89
2018-06-02T02:32:26.441Z,13.76
2018-06-02T02:33:26.422Z,13.79
2018-06-02T02:35:19.409Z,13.84
2018-06-02T02:36:19.375Z,13.77
2018-06-02T02:38:12.356Z,13.67
2018-06-02T02:39:12.321Z,13.71
2018-06-02T02:41:05.269Z,13.67
2018-06-02T02:42:05.248Z,13.80
2018-06-02T02:43:58.205Z,13.79
2018-06-02T02:44:58.203Z,13.71
2018-06-02T02:46:51.116Z,13.87
2018-06-02T02:47:51.097Z,13.80
2018-06-02T02:49:44.058Z,13.74
2018-06-02T02:50:44.051Z,13.91
2018-06-02T02:52:36.957Z,13.80
2018-06-02T02:53:36.925Z,13.79
2018-06-02T02:55:29.913Z,13.77
2018-06-02T02:56:29.901Z,13.81
2018-06-02T02:58:22.825Z,13.77
2018-06-02T02:59:22.805Z,13.67
2018-06-02T03:01:15.765Z,13.81
2018-06-02T03:02:15.748Z,13.83
2018-06-02T03:04:09.756Z,13.84
2018-06-02T03:05:09.735Z,13.83
2018-06-02T03:07:02.653Z,13.83
2018-06-02T03:08:02.631Z,13.83
2018-06-02T03:09:55.571Z,13.80
2018-06-02T03:10:55.550Z,13.80
2018-06-02T03:12:48.521Z,13.70
2018-06-02T03:13:48.497Z,13.71
2018-06-02T03:15:41.440Z,13.77
2018-06-02T03:16:41.423Z,13.71
2018-06-02T03:18:34.428Z,13.76
2018-06-02T03:19:34.409Z,13.80
2018-06-02T03:21:27.342Z,13.84
2018-06-02T03:22:27.327Z,13.79
2018-06-02T03:24:20.325Z,13.80
2018-06-02T03:25:20.318Z,13.89
2018-06-02T03:27:13.275Z,13.80
2018-06-02T03:28:13.248Z,13.81
2018-06-02T03:30:06.164Z,13.81
2018-06-02T03:31:06.159Z,13.88
2018-06-02T03:32:59.062Z,13.77
2018-06-02T03:33:59.045Z,13.88
2018-06-02T03:35:51.981Z,13.91
2018-06-02T03:36:51.968Z,13.87
2018-06-02T03:38:44.978Z,13.95
2018-06-02T03:39:44.946Z,13.87
2018-06-02T03:41:37.975Z,13.96
2018-06-02T03:42:37.952Z,14.04
2018-06-02T03:44:30.906Z,13.96
2018-06-02T03:45:30.890Z,14.01
2018-06-02T03:47:23.842Z,14.14
2018-06-02T03:48:23.810Z,14.17
2018-06-02T03:50:16.822Z,14.20
2018-06-02T03:51:16.800Z,14.27
2018-06-02T03:53:09.783Z,14.39
2018-06-02T03:54:09.761Z,14.31
2018-06-02T03:56:02.692Z,14.53
2018-06-02T03:57:02.673Z,14.54
2018-06-02T03:58:55.594Z,14.54
2018-06-02T03:59:55.559Z,14.72
2018-06-02T04:01:48.474Z,14.75
2018-06-02T04:02:48.455Z,14.83
2018-06-02T04:04:41.463Z,14.84
2018-06-02T04:05:41.440Z,14.91
2018-06-02T04:07:34.457Z,15.01
2018-06-02T04:08:34.423Z,15.11
2018-06-02T04:10:27.319Z,14.99
2018-06-02T04:11:27.306Z,14.84
2018-06-02T04:13:20.264Z,14.74
2018-06-02T04:14:20.240Z,14.50
2018-06-02T04:16:13.159Z,14.46
2018-06-02T04:17:13.146Z,14.35
2018-06-02T04:19:07.063Z,14.37
2018-06-02T04:20:07.048Z,14.54
2018-06-02T04:22:00.010Z,14.54
2018-06-02T04:22:59.984Z,14.44
2018-06-02T04:24:52.995Z,14.56
2018-06-02T04:25:52.989Z,14.57
2018-06-02T04:27:45.941Z,14.80
2018-06-02T04:28:45.922Z,14.90
2018-06-02T04:30:38.826Z,15.01
2018-06-02T04:31:38.811Z,15.06
2018-06-02T04:33:31.840Z,15.08
2018-06-02T04:34:31.817Z,15.03
2018-06-02T04:36:24.746Z,15.08
2018-06-02T04:37:24.729Z,15.21
2018-06-02T04:39:17.746Z,15.33
2018-06-02T04:40:17.732Z,15.35
2018-06-02T04:42:10.694Z,15.42
2018-06-02T04:43:10.674Z,15.51
2018-06-02T04:45:03.661Z,15.56
2018-06-02T04:46:03.670Z,15.68
2018-06-02T04:47:56.566Z,15.74
2018-06-02T04:48:56.553Z,15.89
2018-06-02T04:50:49.574Z,15.99
2018-06-02T04:51:49.558Z,15.99
2018-06-02T04:53:42.527Z,16.11
2018-06-02T04:54:42.506Z,16.20
2018-06-02T04:56:35.514Z,16.37
2018-06-02T04:57:35.505Z,16.45
2018-06-02T04:59:28.529Z,16.42
2018-06-02T05:00:28.510Z,16.22
2018-06-02T05:02:21.553Z,16.20
2018-06-02T05:03:21.538Z,16.34
2018-06-02T05:05:14.521Z,16.50
2018-06-02T05:06:14.518Z,16.56
2018-06-02T05:08:07.514Z,16.73
2018-06-02T05:09:07.498Z,16.67
2018-06-02T05:11:00.395Z,16.40
2018-06-02T05:12:00.383Z,16.67
2018-06-02T05:13:53.299Z,17.00
2018-06-02T05:14:53.271Z,16.99
2018-06-02T05:16:46.265Z,17.14
2018-06-02T05:17:46.253Z,17.13
2018-06-02T05:19:39.296Z,17.25
2018-06-02T05:20:39.277Z,17.43
2018-06-02T05:22:32.218Z,17.50
2018-06-02T05:23:32.198Z,17.59
2018-06-02T05:25:25.096Z,17.62
2018-06-02T05:26:25.087Z,17.48
2018-06-02T05:28:17.988Z,17.51
2018-06-02T05:29:17.978Z,17.64
2018-06-02T05:31:10.868Z,17.63
2018-06-02T05:32:10.861Z,17.74
2018-06-02T05:34:03.794Z,17.79
2018-06-02T05:35:03.780Z,17.95
2018-06-02T05:36:56.749Z,18.07
2018-06-02T05:37:56.740Z,18.00
2018-06-02T05:39:49.666Z,18.00
2018-06-02T05:40:49.649Z,17.97
2018-06-02T05:42:42.617Z,18.00
2018-06-02T05:43:42.578Z,18.10
2018-06-02T05:45:35.599Z,18.46
2018-06-02T05:46:35.587Z,18.44
2018-06-02T05:48:28.602Z,18.72
2018-06-02T05:49:28.581Z,18.64
2018-06-02T05:51:21.566Z,18.70
2018-06-02T05:52:21.546Z,18.86
2018-06-02T05:54:14.578Z,19.28
2018-06-02T05:55:14.550Z,19.13
2018-06-02T05:57:07.563Z,19.28
2018-06-02T05:58:07.547Z,19.29
2018-06-02T06:00:00.655Z,19.58
2018-06-02T06:01:00.593Z,19.46
2018-06-02T06:02:53.574Z,19.90
2018-06-02T06:03:53.544Z,19.84
2018-06-02T06:05:46.594Z,19.78
2018-06-02T06:06:46.575Z,19.95
2018-06-02T06:08:39.492Z,20.02
2018-06-02T06:09:39.477Z,20.42
2018-06-02T06:11:32.508Z,20.56
2018-06-02T06:12:32.486Z,20.20
2018-06-02T06:14:25.561Z,20.46
2018-06-02T06:15:25.547Z,20.20
2018-06-02T06:17:18.462Z,19.72
2018-06-02T06:18:18.447Z,19.42
2018-06-02T06:20:12.494Z,19.28
2018-06-02T06:21:12.476Z,18.82
2018-06-02T06:23:05.521Z,18.77
2018-06-02T06:24:05.515Z,18.91
2018-06-02T06:25:58.523Z,19.14
2018-06-02T06:26:58.518Z,19.40
2018-06-02T06:28:51.510Z,19.90
2018-06-02T06:29:51.497Z,20.21
2018-06-02T06:31:44.502Z,20.33
2018-06-02T06:32:44.490Z,20.33
2018-06-02T06:34:37.498Z,20.68
2018-06-02T06:35:37.486Z,20.58
2018-06-02T06:37:30.417Z,20.89
2018-06-02T06:38:30.478Z,21.14
2018-06-02T06:40:23.388Z,21.24
2018-06-02T06:41:23.369Z,21.02
2018-06-02T06:43:16.388Z,20.59
2018-06-02T06:44:16.374Z,21.01
2018-06-02T06:46:09.334Z,21.30
2018-06-02T06:47:09.315Z,21.08
2018-06-02T06:49:02.335Z,21.34
2018-06-02T06:50:02.319Z,21.16
2018-06-02T06:51:55.254Z,21.06
2018-06-02T06:52:55.234Z,21.14
2018-06-02T06:54:49.249Z,20.68
2018-06-02T06:55:49.235Z,20.35
2018-06-02T06:57:42.143Z,20.02
2018-06-02T06:58:42.146Z,19.98
2018-06-02T07:00:35.083Z,20.10
2018-06-02T07:01:35.078Z,19.87
2018-06-02T07:03:28.105Z,20.10
2018-06-02T07:04:28.084Z,20.18
2018-06-02T07:06:21.101Z,20.64
2018-06-02T07:07:21.080Z,20.54
2018-06-02T07:09:14.098Z,20.56
2018-06-02T07:10:14.083Z,20.62
2018-06-02T07:12:07.175Z,20.33
2018-06-02T07:13:07.090Z,20.18
2018-06-02T07:15:00.114Z,20.16
2018-06-02T07:16:00.087Z,20.09
2018-06-02T07:17:53.163Z,19.94
2018-06-02T07:18:53.087Z,19.91
2018-06-02T07:20:46.118Z,21.32
2018-06-02T07:21:46.150Z,22.22
2018-06-02T07:23:39.121Z,22.65
2018-06-02T07:24:39.114Z,22.43
2018-06-02T07:26:32.129Z,22.52
2018-06-02T07:27:32.164Z,22.94
2018-06-02T07:29:25.177Z,24.60
2018-06-02T07:30:25.124Z,25.19
2018-06-02T07:32:18.182Z,25.68
2018-06-02T07:33:18.189Z,25.68
2018-06-02T07:35:11.167Z,25.86
2018-06-02T07:36:11.217Z,25.42
2018-06-02T07:38:04.131Z,23.08
2018-06-02T07:39:04.131Z,22.47
2018-06-02T07:40:57.109Z,23.75
2018-06-02T07:41:57.091Z,25.05
2018-06-02T07:43:50.112Z,26.57
2018-06-02T07:44:50.107Z,27.47
2018-06-02T07:46:43.103Z,27.35
2018-06-02T07:47:43.089Z,28.06
2018-06-02T07:49:36.101Z,27.11
2018-06-02T07:50:36.100Z,27.02
2018-06-02T07:52:29.142Z,26.12
2018-06-02T07:53:29.844Z,25.20
2018-06-02T07:55:22.084Z,25.34
2018-06-02T07:56:22.074Z,25.65
2018-06-02T07:58:15.061Z,24.60
2018-06-02T07:59:15.041Z,24.31
2018-06-02T08:01:08.045Z,23.52
2018-06-02T08:02:08.038Z,23.68
2018-06-02T08:04:00.982Z,25.27
2018-06-02T08:05:00.976Z,25.90
2018-06-02T08:06:53.973Z,26.57
2018-06-02T08:07:53.970Z,26.89
2018-06-02T08:09:46.937Z,25.99
2018-06-02T08:10:46.923Z,26.09
2018-06-02T08:12:39.902Z,24.77
2018-06-02T08:13:39.900Z,23.87
2018-06-02T08:15:32.923Z,22.93
2018-06-02T08:16:32.914Z,22.80
2018-06-02T08:18:25.925Z,22.87
2018-06-02T08:19:25.923Z,22.87
2018-06-02T08:21:18.868Z,22.69
2018-06-02T08:22:18.847Z,22.54
2018-06-02T08:24:11.832Z,22.57
2018-06-02T08:25:11.832Z,22.74
2018-06-02T08:27:04.784Z,22.80
2018-06-02T08:28:04.773Z,22.78
2018-06-02T08:29:57.714Z,22.96
2018-06-02T08:30:57.703Z,22.83
2018-06-02T08:32:50.645Z,23.24
2018-06-02T08:33:50.638Z,23.29
2018-06-02T08:35:43.608Z,22.74
2018-06-02T08:36:43.595Z,22.75
2018-06-02T08:38:36.607Z,22.97
2018-06-02T08:39:36.599Z,23.32
2018-06-02T08:41:29.610Z,22.94
2018-06-02T08:42:29.594Z,22.75
2018-06-02T08:44:22.586Z,22.68
2018-06-02T08:45:22.577Z,22.65
2018-06-02T08:47:15.515Z,22.09
2018-06-02T08:48:15.512Z,22.25
2018-06-02T08:50:08.538Z,21.97
2018-06-02T08:51:08.529Z,21.97
2018-06-02T08:53:01.461Z,22.20
2018-06-02T08:54:01.452Z,22.14
2018-06-02T08:55:54.486Z,22.32
2018-06-02T08:56:54.472Z,22.52
2018-06-02T08:58:47.484Z,22.65
2018-06-02T08:59:47.480Z,22.93
2018-06-02T09:01:40.489Z,23.01
2018-06-02T09:02:40.468Z,22.49
2018-06-02T09:04:33.482Z,22.89
2018-06-02T09:05:33.476Z,23.14
2018-06-02T09:07:26.488Z,23.71
2018-06-02T09:08:26.479Z,23.40
2018-06-02T09:10:19.461Z,22.94
2018-06-02T09:11:19.459Z,23.01
2018-06-02T09:13:12.368Z,23.14
2018-06-02T09:14:12.364Z,22.65
2018-06-02T09:16:05.341Z,22.09
2018-06-02T09:17:05.324Z,22.37
2018-06-02T09:18:58.308Z,22.07
2018-06-02T09:19:58.308Z,22.04
2018-06-02T09:21:51.271Z,21.94
2018-06-02T09:22:51.228Z,22.19
2018-06-02T09:24:44.154Z,22.31
2018-06-02T09:25:44.144Z,22.39
2018-06-02T09:27:37.119Z,22.38
2018-06-02T09:28:37.106Z,22.28
2018-06-02T09:30:30.088Z,22.52
2018-06-02T09:31:30.069Z,22.89
2018-06-02T09:33:23.017Z,22.92
2018-06-02T09:34:23.026Z,22.49
2018-06-02T09:36:16.017Z,24.60
2018-06-02T09:37:16.002Z,25.75
2018-06-02T09:39:08.935Z,27.94
2018-06-02T09:40:08.921Z,28.47
2018-06-02T09:42:01.891Z,29.19
2018-06-02T09:43:01.882Z,28.35
2018-06-02T09:44:54.848Z,28.90
2018-06-02T09:45:54.841Z,29.13
2018-06-02T09:47:47.871Z,29.77
2018-06-02T09:48:47.841Z,28.58
2018-06-02T09:50:40.850Z,27.89
2018-06-02T09:51:40.848Z,28.14
2018-06-02T09:53:33.839Z,29.16
2018-06-02T09:54:33.842Z,29.65
2018-06-02T09:56:26.834Z,30.59
2018-06-02T09:57:26.834Z,31.15
2018-06-02T09:59:19.765Z,30.54
2018-06-02T10:00:19.784Z,30.61
2018-06-02T10:02:12.845Z,30.00
2018-06-02T10:03:12.838Z,30.91
2018-06-02T10:05:05.794Z,31.54
2018-06-02T10:06:05.803Z,31.58
2018-06-02T10:07:58.844Z,31.17
2018-06-02T10:08:58.847Z,31.40
2018-06-02T10:10:51.904Z,32.47
2018-06-02T10:11:51.902Z,33.48
2018-06-02T10:13:44.873Z,35.18
2018-06-02T10:14:44.873Z,35.99
2018-06-02T10:16:37.828Z,36.99
2018-06-02T10:17:37.831Z,36.79
2018-06-02T10:19:30.848Z,33.53
2018-06-02T10:20:30.856Z,32.52
2018-06-02T10:22:23.868Z,30.53
2018-06-02T10:23:23.854Z,29.44
2018-06-02T10:25:16.837Z,28.90
2018-06-02T10:26:16.852Z,29.06
2018-06-02T10:28:09.823Z,29.28
2018-06-02T10:29:09.827Z,28.72
2018-06-02T10:31:02.780Z,27.96
2018-06-02T10:32:02.794Z,27.16
2018-06-02T10:33:55.730Z,26.79
2018-06-02T10:34:55.717Z,26.65
2018-06-02T10:36:48.748Z,25.31
2018-06-02T10:37:48.743Z,24.97
2018-06-02T10:39:41.696Z,23.92
2018-06-02T10:40:41.693Z,24.47
2018-06-02T10:42:34.651Z,24.47
2018-06-02T10:43:34.643Z,25.54
2018-06-02T10:45:27.596Z,27.33
2018-06-02T10:46:27.597Z,27.21
2018-06-02T10:47:27.607Z,27.23
2018-06-02T10:48:27.611Z,28.10
2018-06-02T10:49:27.629Z,28.59
2018-06-02T10:50:27.660Z,29.15
2018-06-02T10:51:27.654Z,28.14
2018-06-02T10:52:27.666Z,28.54
2018-06-02T10:53:27.685Z,29.28
2018-06-02T10:54:27.693Z,29.81
2018-06-02T10:55:27.706Z,29.82
2018-06-02T10:56:27.741Z,29.25
2018-06-02T10:57:27.736Z,28.17
2018-06-02T10:58:27.788Z,27.88
2018-06-02T10:59:27.770Z,28.62
2018-06-02T11:00:27.783Z,28.60
2018-06-02T11:01:27.797Z,27.69
2018-06-02T11:02:27.813Z,27.19
2018-06-02T11:03:27.822Z,26.20
2018-06-02T11:04:27.849Z,25.84
2018-06-02T11:05:27.885Z,25.86
2018-06-02T11:06:27.868Z,25.82
2018-06-02T11:07:27.878Z,26.01
2018-06-02T11:08:27.887Z,25.98
2018-06-02T11:09:27.899Z,26.09
2018-06-02T11:10:27.952Z,26.06
2018-06-02T11:11:27.921Z,26.36
2018-06-02T11:12:27.932Z,26.49
2018-06-02T11:13:27.937Z,26.64
2018-06-02T11:14:27.993Z,26.87
2018-06-02T11:15:27.963Z,27.24
2018-06-02T11:16:27.976Z,27.21
2018-06-02T11:17:27.979Z,28.17
2018-06-02T11:18:27.980Z,29.72
2018-06-02T11:19:28.031Z,30.46
2018-06-02T11:20:28.012Z,30.53
2018-06-02T11:21:28.023Z,31.13
2018-06-02T11:22:28.032Z,31.45
2018-06-02T11:23:28.048Z,31.18
2018-06-02T11:24:28.064Z,30.83
2018-06-02T11:25:28.073Z,30.53
2018-06-02T11:26:28.081Z,30.09
2018-06-02T11:27:28.123Z,31.02
2018-06-02T11:28:28.134Z,31.36
2018-06-02T11:29:28.126Z,30.76
2018-06-02T11:30:28.145Z,30.61
2018-06-02T11:31:28.157Z,30.59
2018-06-02T11:32:28.168Z,29.70
2018-06-02T11:33:28.178Z,29.84
2018-06-02T11:34:28.208Z,30.53
2018-06-02T11:35:28.226Z,31.24
2018-06-02T11:36:28.237Z,30.72
2018-06-02T11:37:28.256Z,30.69
2018-06-02T11:38:28.297Z,31.31
2018-06-02T11:39:28.308Z,30.90
2018-06-02T11:40:28.316Z,31.26
2018-06-02T11:41:28.327Z,30.62
2018-06-02T11:42:28.340Z,30.64
2018-06-02T11:43:28.371Z,29.92
2018-06-02T11:44:28.386Z,30.07
2018-06-02T11:45:28.402Z,29.34
2018-06-02T11:46:28.424Z,30.56
2018-06-02T11:47:28.470Z,30.67
2018-06-02T11:48:28.477Z,30.61
2018-06-02T11:49:28.479Z,30.09
2018-06-02T11:50:28.496Z,30.33
2018-06-02T11:51:28.532Z,28.75
2018-06-02T11:52:28.538Z,28.23
2018-06-02T11:53:28.557Z,28.73
2018-06-02T11:54:28.569Z,29.57
2018-06-02T11:55:28.619Z,28.87
2018-06-02T11:56:28.605Z,28.36
2018-06-02T11:57:28.637Z,28.54
2018-06-02T11:58:28.648Z,28.53
2018-06-02T11:59:28.661Z,29.59
2018-06-02T12:00:28.687Z,30.45
2018-06-02T12:01:28.706Z,29.81
2018-06-02T12:02:28.726Z,29.90
2018-06-02T12:03:28.755Z,29.59
2018-06-02T12:04:28.790Z,29.71
2018-06-02T12:05:28.796Z,30.18
2018-06-02T12:06:28.801Z,29.99
2018-06-02T12:07:28.823Z,29.90
2018-06-02T12:08:28.844Z,30.72
2018-06-02T12:09:28.863Z,30.24
2018-06-02T12:10:28.890Z,30.57
2018-06-02T12:11:28.896Z,31.39
2018-06-02T12:12:28.954Z,31.08
2018-06-02T12:13:28.944Z,30.53
2018-06-02T12:14:28.959Z,29.99
2018-06-02T12:15:28.969Z,29.71
2018-06-02T12:16:29.281Z,30.03
2018-06-02T12:17:29.102Z,30.49
2018-06-02T12:18:29.032Z,31.31
2018-06-02T12:19:29.053Z,31.98
2018-06-02T12:20:29.066Z,32.44
2018-06-02T12:21:29.105Z,32.06
2018-06-02T12:22:29.100Z,31.31
2018-06-02T12:23:29.119Z,31.39
2018-06-02T12:24:29.143Z,30.83
2018-06-02T12:25:29.155Z,31.45
2018-06-02T12:26:29.180Z,30.84
2018-06-02T12:27:29.198Z,30.56
2018-06-02T12:28:29.245Z,30.29
2018-06-02T12:29:29.227Z,30.02
2018-06-02T12:30:29.277Z,29.13
2018-06-02T12:31:29.273Z,28.07
2018-06-02T12:32:29.289Z,27.69
2018-06-02T12:33:29.290Z,27.35
2018-06-02T12:34:29.302Z,27.95
2018-06-02T12:35:29.315Z,27.92
2018-06-02T12:36:29.323Z,27.79
2018-06-02T12:37:29.344Z,27.46
2018-06-02T12:38:29.362Z,27.36
2018-06-02T12:39:29.382Z,27.33
2018-06-02T12:40:29.381Z,27.39
2018-06-02T12:41:29.394Z,27.32
2018-06-02T12:42:29.410Z,27.02
2018-06-02T12:43:29.416Z,26.91
2018-06-02T12:44:29.427Z,26.87
2018-06-02T12:45:29.430Z,26.86
2018-06-02T12:46:29.444Z,27.06
2018-06-02T12:47:29.449Z,27.46
2018-06-02T12:48:29.460Z,27.53
2018-06-02T12:49:29.472Z,27.23
2018-06-02T12:50:29.476Z,27.16
2018-06-02T12:51:29.483Z,27.16
2018-06-02T12:52:29.490Z,26.77
2018-06-02T12:53:29.501Z,26.43
2018-06-02T12:54:29.508Z,25.91
2018-06-02T12:55:29.535Z,25.67
2018-06-02T12:56:29.525Z,25.28
2018-06-02T12:57:29.526Z,25.32
2018-06-02T12:58:29.555Z,25.43
2018-06-02T12:59:29.542Z,25.49
2018-06-02T13:00:29.550Z,25.52
2018-06-02T13:01:29.553Z,25.75
2018-06-02T13:02:29.575Z,25.84
2018-06-02T13:03:29.569Z,25.97
2018-06-02T13:04:29.573Z,26.32
2018-06-02T13:05:29.579Z,26.64
2018-06-02T13:06:29.584Z,26.46
2018-06-02T13:07:29.591Z,26.32
2018-06-02T13:08:29.596Z,26.15
2018-06-02T13:09:29.605Z,26.11
2018-06-02T13:10:29.610Z,25.84
2018-06-02T13:11:29.616Z,25.80
2018-06-02T13:12:29.620Z,25.09
2018-06-02T13:13:29.625Z,24.98
2018-06-02T13:14:29.628Z,24.83
2018-06-02T13:15:29.635Z,24.75
2018-06-02T13:16:29.642Z,24.90
2018-06-02T13:17:29.644Z,25.05
2018-06-02T13:18:29.652Z,25.06
2018-06-02T13:19:29.656Z,25.09
2018-06-02T13:20:29.663Z,25.07
2018-06-02T13:21:29.666Z,25.52
2018-06-02T13:22:29.685Z,25.74
2018-06-02T13:23:29.696Z,25.77
2018-06-02T13:24:29.683Z,25.61
2018-06-02T13:25:29.690Z,25.38
2018-06-02T13:26:29.694Z,25.12
2018-06-02T13:27:29.698Z,25.28
2018-06-02T13:28:29.701Z,25.49
2018-06-02T13:29:29.709Z,25.38
2018-06-02T13:30:29.711Z,25.49
2018-06-02T13:31:29.719Z,25.53
2018-06-02T13:32:29.720Z,25.32
2018-06-02T13:33:29.727Z,25.02
2018-06-02T13:34:29.732Z,24.76
2018-06-02T13:35:29.743Z,24.85
2018-06-02T13:36:29.742Z,24.75
2018-06-02T13:37:29.745Z,24.98
2018-06-02T13:38:29.752Z,24.91
2018-06-02T13:39:29.764Z,24.87
2018-06-02T13:40:29.761Z,24.71
2018-06-02T13:41:29.763Z,24.54
2018-06-02T13:42:29.768Z,24.63
2018-06-02T13:43:29.779Z,24.53
2018-06-02T13:44:29.780Z,24.45
2018-06-02T13:45:29.780Z,24.26
2018-06-02T13:46:29.795Z,24.44
2018-06-02T13:47:29.795Z,24.34
2018-06-02T13:48:29.799Z,24.29
2018-06-02T13:49:29.802Z,24.35
2018-06-02T13:50:29.814Z,24.45
2018-06-02T13:51:29.820Z,24.54
2018-06-02T13:52:29.817Z,24.57
2018-06-02T13:53:29.839Z,24.80
2018-06-02T13:54:29.840Z,24.73
2018-06-02T13:55:29.832Z,24.71
2018-06-02T13:56:29.837Z,24.98
2018-06-02T13:57:29.897Z,24.85
2018-06-02T13:58:29.863Z,25.00
2018-06-02T13:59:29.862Z,24.90
2018-06-02T14:00:29.864Z,25.09
2018-06-02T14:01:29.856Z,25.12
2018-06-02T14:02:29.864Z,25.42
2018-06-02T14:03:29.872Z,25.64
2018-06-02T14:04:29.876Z,25.86
2018-06-02T14:05:29.882Z,25.97
2018-06-02T14:06:29.881Z,26.01
2018-06-02T14:07:29.893Z,26.21
2018-06-02T14:08:29.891Z,26.43
2018-06-02T14:09:29.894Z,26.61
2018-06-02T14:10:29.911Z,26.76
2018-06-02T14:11:29.914Z,27.05
2018-06-02T14:12:29.924Z,26.61
2018-06-02T14:13:29.920Z,26.95
2018-06-02T14:14:29.925Z,26.59
2018-06-02T14:15:29.933Z,26.74
2018-06-02T14:16:29.931Z,26.61
2018-06-02T14:17:29.938Z,26.50
2018-06-02T14:18:29.990Z,26.32
2018-06-02T14:19:29.947Z,26.68
2018-06-02T14:20:29.991Z,27.06
2018-06-02T14:21:29.958Z,27.26
2018-06-02T14:22:29.981Z,27.19
2018-06-02T14:23:29.970Z,27.10
2018-06-02T14:24:29.976Z,26.74
2018-06-02T14:25:30.057Z,26.59
2018-06-02T14:26:29.989Z,26.40
2018-06-02T14:27:29.995Z,26.40
2018-06-02T14:28:30.000Z,26.36
2018-06-02T14:29:30.006Z,26.61
2018-06-02T14:30:30.011Z,26.86
2018-06-02T14:31:30.017Z,26.69
2018-06-02T14:32:30.022Z,26.44
2018-06-02T14:33:30.033Z,26.49
2018-06-02T14:34:30.038Z,26.27
2018-06-02T14:35:30.044Z,26.27
2018-06-02T14:36:30.040Z,25.77
2018-06-02T14:37:30.052Z,25.46
2018-06-02T14:38:30.056Z,25.49
2018-06-02T14:39:30.062Z,25.56
2018-06-02T14:40:30.063Z,25.67
2018-06-02T14:41:30.078Z,25.86
2018-06-02T14:42:30.134Z,25.94
2018-06-02T14:43:30.090Z,25.79
2018-06-02T14:44:30.082Z,25.87
2018-06-02T14:45:30.092Z,25.57
2018-06-02T14:46:30.099Z,25.57
2018-06-02T14:47:30.097Z,25.59
2018-06-02T14:48:30.103Z,25.57
2018-06-02T14:49:30.111Z,25.89
2018-06-02T14:50:30.117Z,26.06
2018-06-02T14:51:30.125Z,26.28
2018-06-02T14:52:30.124Z,26.42
2018-06-02T14:53:30.136Z,26.62
2018-06-02T14:54:30.149Z,26.59
2018-06-02T14:55:30.144Z,26.67
2018-06-02T14:56:30.148Z,26.42
2018-06-02T14:57:30.165Z,26.64
2018-06-02T14:58:30.154Z,26.58
2018-06-02T14:59:30.167Z,26.50
2018-06-02T15:00:30.165Z,26.65
2018-06-02T15:01:30.166Z,26.59
2018-06-02T15:02:30.175Z,26.65
2018-06-02T15:03:30.179Z,26.39
2018-06-02T15:04:30.199Z,26.25
2018-06-02T15:05:30.213Z,25.87
2018-06-02T15:06:30.191Z,25.80
2018-06-02T15:07:30.194Z,25.75
2018-06-02T15:08:30.196Z,25.83
2018-06-02T15:09:30.225Z,25.84
2018-06-02T15:10:30.208Z,25.86
2018-06-02T15:11:30.220Z,25.90
2018-06-02T15:12:30.222Z,25.89
2018-06-02T15:13:30.221Z,26.06
2018-06-02T15:14:30.223Z,26.08
2018-06-02T15:15:30.227Z,26.02
2018-06-02T15:16:30.231Z,25.89
2018-06-02T15:17:30.240Z,25.99
2018-06-02T15:18:30.239Z,26.06
2018-06-02T15:19:30.244Z,26.12
2018-06-02T15:20:30.248Z,26.32
2018-06-02T15:21:30.249Z,26.35
2018-06-02T15:22:30.253Z,26.46
2018-06-02T15:23:30.252Z,26.49
2018-06-02T15:24:30.250Z,26.64
2018-06-02T15:25:30.257Z,26.68
2018-06-02T15:26:30.258Z,26.49
2018-06-02T15:27:30.274Z,26.15
2018-06-02T15:28:30.278Z,26.32
2018-06-02T15:29:30.292Z,26.46
2018-06-02T15:30:30.283Z,26.32
2018-06-02T15:31:30.314Z,26.43
2018-06-02T15:32:30.286Z,26.62
2018-06-02T15:33:30.293Z,26.64
2018-06-02T15:34:30.296Z,26.57
2018-06-02T15:35:30.304Z,26.52
2018-06-02T15:36:30.321Z,26.37
2018-06-02T15:37:30.310Z,26.52
2018-06-02T15:38:30.330Z,26.54
2018-06-02T15:39:30.335Z,26.46
2018-06-02T15:40:30.341Z,26.36
2018-06-02T15:41:30.323Z,25.89
2018-06-02T15:42:30.327Z,25.71
2018-06-02T15:43:30.332Z,25.84
2018-06-02T15:44:30.335Z,26.12
2018-06-02T15:45:30.337Z,26.15
2018-06-02T15:46:30.343Z,26.20
2018-06-02T15:47:30.350Z,26.20
2018-06-02T15:48:30.354Z,26.31
2018-06-02T15:49:30.386Z,26.28
2018-06-02T15:50:30.377Z,26.01
2018-06-02T15:51:30.361Z,26.05
2018-06-02T15:52:30.370Z,25.67
2018-06-02T15:53:30.368Z,25.47
2018-06-02T15:54:30.373Z,25.43
2018-06-02T15:55:30.382Z,25.43
2018-06-02T15:56:30.380Z,25.28
2018-06-02T15:57:30.385Z,25.38
2018-06-02T15:58:30.384Z,25.46
2018-06-02T15:59:30.394Z,25.37
2018-06-02T16:00:30.400Z,25.50
2018-06-02T16:01:30.406Z,25.39
2018-06-02T16:02:30.408Z,25.05
2018-06-02T16:03:30.444Z,25.01
2018-06-02T16:04:30.415Z,25.07